sensor_id;sensor_type;location;lat;lon;timestamp;temperature;humidity
15131;DHT22;7666;50.920;4.628;2024-01-15T00:02:14;2.50;99.90
15131;DHT22;7666;50.920;4.628;2024-01-15T00:05:00;2.40;99.90
15131;DHT22;7666;50.920;4.628;2024-01-15T00:07:46;2.40;99.90
15131;DHT22;7666;50.920;4.628;2024-01-15T00:10:32;2.40;99.90
15131;DHT22;7666;50.920;4.628;2024-01-15T00:13:18;2.40;99.90
15131;DHT22;7666;50.920;4.628;2024-01-15T00:16:06;2.40;99.90
15131;DHT22;7666;50.920;4.628;2024-01-15T00:18:52;2.40;99.90
15131;DHT22;7666;50.920;4.628;2024-01-15T00:21:38;2.40;99.90
15131;DHT22;7666;50.920;4.628;2024-01-15T00:24:25;2.40;99.90
15131;DHT22;7666;50.920;4.628;2024-01-15T00:27:11;2.40;99.90
15131;DHT22;7666;50.920;4.628;2024-01-15T00:29:57;2.40;99.90
15131;DHT22;7666;50.920;4.628;2024-01-15T00:32:42;2.40;99.90
15131;DHT22;7666;50.920;4.628;2024-01-15T00:35:28;2.50;99.90
15131;DHT22;7666;50.920;4.628;2024-01-15T00:38:14;2.50;99.90
15131;DHT22;7666;50.920;4.628;2024-01-15T00:41:00;2.50;99.90
15131;DHT22;7666;50.920;4.628;2024-01-15T00:43:46;2.50;99.90
15131;DHT22;7666;50.920;4.628;2024-01-15T00:46:45;2.60;99.90
15131;DHT22;7666;50.920;4.628;2024-01-15T00:49:31;2.60;99.90
15131;DHT22;7666;50.920;4.628;2024-01-15T00:52:17;2.60;99.90
15131;DHT22;7666;50.920;4.628;2024-01-15T00:55:04;2.50;99.90
15131;DHT22;7666;50.920;4.628;2024-01-15T00:57:50;2.50;99.90
15131;DHT22;7666;50.920;4.628;2024-01-15T01:00:35;2.50;99.90
15131;DHT22;7666;50.920;4.628;2024-01-15T01:03:21;2.50;99.90
15131;DHT22;7666;50.920;4.628;2024-01-15T01:06:08;2.50;99.90
15131;DHT22;7666;50.920;4.628;2024-01-15T01:08:53;2.50;99.90
15131;DHT22;7666;50.920;4.628;2024-01-15T01:11:39;2.50;99.90
15131;DHT22;7666;50.920;4.628;2024-01-15T01:14:25;2.50;99.90
15131;DHT22;7666;50.920;4.628;2024-01-15T01:17:11;2.50;99.90
15131;DHT22;7666;50.920;4.628;2024-01-15T01:19:57;2.50;99.90
15131;DHT22;7666;50.920;4.628;2024-01-15T01:22:43;2.60;99.90
15131;DHT22;7666;50.920;4.628;2024-01-15T01:25:29;2.50;99.90
15131;DHT22;7666;50.920;4.628;2024-01-15T01:28:15;2.40;99.90
15131;DHT22;7666;50.920;4.628;2024-01-15T01:31:01;2.40;99.90
15131;DHT22;7666;50.920;4.628;2024-01-15T01:33:47;2.40;99.90
15131;DHT22;7666;50.920;4.628;2024-01-15T01:36:33;2.30;99.90
15131;DHT22;7666;50.920;4.628;2024-01-15T01:39:19;2.30;99.90
15131;DHT22;7666;50.920;4.628;2024-01-15T01:42:05;2.30;99.90
15131;DHT22;7666;50.920;4.628;2024-01-15T01:44:52;2.30;99.90
15131;DHT22;7666;50.920;4.628;2024-01-15T01:47:38;2.40;99.90
15131;DHT22;7666;50.920;4.628;2024-01-15T01:50:24;2.30;99.90
15131;DHT22;7666;50.920;4.628;2024-01-15T01:53:10;2.30;99.90
15131;DHT22;7666;50.920;4.628;2024-01-15T01:55:57;2.20;99.90
15131;DHT22;7666;50.920;4.628;2024-01-15T01:58:44;2.30;99.90
15131;DHT22;7666;50.920;4.628;2024-01-15T02:01:31;2.30;99.90
15131;DHT22;7666;50.920;4.628;2024-01-15T02:04:17;2.20;99.90
15131;DHT22;7666;50.920;4.628;2024-01-15T02:07:03;2.30;99.90
15131;DHT22;7666;50.920;4.628;2024-01-15T02:09:50;2.30;99.90
15131;DHT22;7666;50.920;4.628;2024-01-15T02:12:36;2.30;99.90
15131;DHT22;7666;50.920;4.628;2024-01-15T02:15:22;2.30;99.90
15131;DHT22;7666;50.920;4.628;2024-01-15T02:18:08;2.30;99.90
15131;DHT22;7666;50.920;4.628;2024-01-15T02:20:54;2.40;99.90
15131;DHT22;7666;50.920;4.628;2024-01-15T02:23:40;2.40;99.90
15131;DHT22;7666;50.920;4.628;2024-01-15T02:26:26;2.40;99.90
15131;DHT22;7666;50.920;4.628;2024-01-15T02:29:12;2.40;99.90
15131;DHT22;7666;50.920;4.628;2024-01-15T02:31:59;2.40;99.90
15131;DHT22;7666;50.920;4.628;2024-01-15T02:34:45;2.50;99.90
15131;DHT22;7666;50.920;4.628;2024-01-15T02:37:31;2.50;99.90
15131;DHT22;7666;50.920;4.628;2024-01-15T02:40:17;2.60;99.90
15131;DHT22;7666;50.920;4.628;2024-01-15T02:43:03;2.50;99.90
15131;DHT22;7666;50.920;4.628;2024-01-15T02:45:49;2.50;99.90
15131;DHT22;7666;50.920;4.628;2024-01-15T02:48:35;2.50;99.90
15131;DHT22;7666;50.920;4.628;2024-01-15T02:51:21;2.50;99.90
15131;DHT22;7666;50.920;4.628;2024-01-15T02:54:07;2.50;99.90
15131;DHT22;7666;50.920;4.628;2024-01-15T02:56:53;2.50;99.90
15131;DHT22;7666;50.920;4.628;2024-01-15T02:59:39;2.50;99.90
15131;DHT22;7666;50.920;4.628;2024-01-15T03:02:25;2.50;99.90
15131;DHT22;7666;50.920;4.628;2024-01-15T03:05:11;2.50;99.90
15131;DHT22;7666;50.920;4.628;2024-01-15T03:07:57;2.50;99.90
15131;DHT22;7666;50.920;4.628;2024-01-15T03:10:43;2.50;99.90
15131;DHT22;7666;50.920;4.628;2024-01-15T03:13:29;2.50;99.90
15131;DHT22;7666;50.920;4.628;2024-01-15T03:16:14;2.50;99.90
15131;DHT22;7666;50.920;4.628;2024-01-15T03:19:01;2.50;99.90
15131;DHT22;7666;50.920;4.628;2024-01-15T03:21:47;2.50;99.90
15131;DHT22;7666;50.920;4.628;2024-01-15T03:24:33;2.40;99.90
15131;DHT22;7666;50.920;4.628;2024-01-15T03:27:19;2.40;99.90
15131;DHT22;7666;50.920;4.628;2024-01-15T03:30:05;2.40;99.90
15131;DHT22;7666;50.920;4.628;2024-01-15T03:32:51;2.40;99.90
15131;DHT22;7666;50.920;4.628;2024-01-15T03:35:37;2.50;99.90
15131;DHT22;7666;50.920;4.628;2024-01-15T03:38:23;2.50;99.90
15131;DHT22;7666;50.920;4.628;2024-01-15T03:41:09;2.40;99.90
15131;DHT22;7666;50.920;4.628;2024-01-15T03:43:55;2.40;99.90
15131;DHT22;7666;50.920;4.628;2024-01-15T03:46:41;2.40;99.90
15131;DHT22;7666;50.920;4.628;2024-01-15T03:49:27;2.40;99.90
15131;DHT22;7666;50.920;4.628;2024-01-15T03:52:13;2.40;99.90
15131;DHT22;7666;50.920;4.628;2024-01-15T03:54:59;2.40;99.90
15131;DHT22;7666;50.920;4.628;2024-01-15T03:57:45;2.50;99.90
15131;DHT22;7666;50.920;4.628;2024-01-15T04:00:31;2.40;99.90
15131;DHT22;7666;50.920;4.628;2024-01-15T04:03:17;2.40;99.90
15131;DHT22;7666;50.920;4.628;2024-01-15T04:06:04;2.40;99.90
15131;DHT22;7666;50.920;4.628;2024-01-15T04:08:50;2.40;99.90
15131;DHT22;7666;50.920;4.628;2024-01-15T04:11:36;2.40;99.90
15131;DHT22;7666;50.920;4.628;2024-01-15T04:14:22;2.40;99.90
15131;DHT22;7666;50.920;4.628;2024-01-15T04:17:08;2.40;99.90
15131;DHT22;7666;50.920;4.628;2024-01-15T04:19:54;2.40;99.90
15131;DHT22;7666;50.920;4.628;2024-01-15T04:22:39;2.40;99.90
15131;DHT22;7666;50.920;4.628;2024-01-15T04:25:25;2.40;99.90
15131;DHT22;7666;50.920;4.628;2024-01-15T04:28:12;2.30;99.90
15131;DHT22;7666;50.920;4.628;2024-01-15T04:30:58;2.30;99.90
15131;DHT22;7666;50.920;4.628;2024-01-15T04:33:45;2.30;99.90
15131;DHT22;7666;50.920;4.628;2024-01-15T04:36:31;2.30;99.90
15131;DHT22;7666;50.920;4.628;2024-01-15T04:39:17;2.30;99.90
15131;DHT22;7666;50.920;4.628;2024-01-15T04:42:04;2.30;99.90
15131;DHT22;7666;50.920;4.628;2024-01-15T04:44:50;2.20;99.90
15131;DHT22;7666;50.920;4.628;2024-01-15T04:47:36;2.20;99.90
15131;DHT22;7666;50.920;4.628;2024-01-15T04:50:22;2.20;99.90
15131;DHT22;7666;50.920;4.628;2024-01-15T04:53:08;2.30;99.90
15131;DHT22;7666;50.920;4.628;2024-01-15T04:55:54;2.10;99.90
15131;DHT22;7666;50.920;4.628;2024-01-15T04:58:40;2.20;99.90
15131;DHT22;7666;50.920;4.628;2024-01-15T05:01:31;2.00;99.90
15131;DHT22;7666;50.920;4.628;2024-01-15T05:04:18;2.00;99.90
15131;DHT22;7666;50.920;4.628;2024-01-15T05:07:04;2.00;99.90
15131;DHT22;7666;50.920;4.628;2024-01-15T05:09:50;2.00;99.90
15131;DHT22;7666;50.920;4.628;2024-01-15T05:12:36;2.00;99.90
15131;DHT22;7666;50.920;4.628;2024-01-15T05:15:21;2.00;99.90
15131;DHT22;7666;50.920;4.628;2024-01-15T05:18:07;2.00;99.90
15131;DHT22;7666;50.920;4.628;2024-01-15T05:20:53;2.00;99.90
15131;DHT22;7666;50.920;4.628;2024-01-15T05:23:39;2.00;99.90
15131;DHT22;7666;50.920;4.628;2024-01-15T05:26:25;2.00;99.90
15131;DHT22;7666;50.920;4.628;2024-01-15T05:29:11;2.00;99.90
15131;DHT22;7666;50.920;4.628;2024-01-15T05:31:57;2.00;99.90
15131;DHT22;7666;50.920;4.628;2024-01-15T05:34:43;2.00;99.90
15131;DHT22;7666;50.920;4.628;2024-01-15T05:37:29;2.00;99.90
15131;DHT22;7666;50.920;4.628;2024-01-15T05:40:15;2.00;99.90
15131;DHT22;7666;50.920;4.628;2024-01-15T05:43:01;1.90;99.90
15131;DHT22;7666;50.920;4.628;2024-01-15T05:45:47;2.10;99.90
15131;DHT22;7666;50.920;4.628;2024-01-15T05:48:33;1.90;99.90
15131;DHT22;7666;50.920;4.628;2024-01-15T05:51:19;1.90;99.90
15131;DHT22;7666;50.920;4.628;2024-01-15T05:54:05;1.80;99.90
15131;DHT22;7666;50.920;4.628;2024-01-15T05:56:51;1.90;99.90
15131;DHT22;7666;50.920;4.628;2024-01-15T05:59:37;1.90;99.90
15131;DHT22;7666;50.920;4.628;2024-01-15T06:02:23;1.80;99.90
15131;DHT22;7666;50.920;4.628;2024-01-15T06:05:09;1.80;99.90
15131;DHT22;7666;50.920;4.628;2024-01-15T06:07:55;1.80;99.90
15131;DHT22;7666;50.920;4.628;2024-01-15T06:10:41;1.80;99.90
15131;DHT22;7666;50.920;4.628;2024-01-15T06:13:27;1.80;99.90
15131;DHT22;7666;50.920;4.628;2024-01-15T06:16:14;1.70;99.90
15131;DHT22;7666;50.920;4.628;2024-01-15T06:19:01;1.80;99.90
15131;DHT22;7666;50.920;4.628;2024-01-15T06:21:47;1.80;99.90
15131;DHT22;7666;50.920;4.628;2024-01-15T06:24:33;1.80;99.90
15131;DHT22;7666;50.920;4.628;2024-01-15T06:27:19;1.80;99.90
15131;DHT22;7666;50.920;4.628;2024-01-15T06:30:05;1.80;99.90
15131;DHT22;7666;50.920;4.628;2024-01-15T06:32:52;1.80;99.90
15131;DHT22;7666;50.920;4.628;2024-01-15T06:35:38;1.80;99.90
15131;DHT22;7666;50.920;4.628;2024-01-15T06:38:24;1.70;99.90
15131;DHT22;7666;50.920;4.628;2024-01-15T06:41:10;1.70;99.90
15131;DHT22;7666;50.920;4.628;2024-01-15T06:43:56;1.70;99.90
15131;DHT22;7666;50.920;4.628;2024-01-15T06:46:43;1.70;99.90
15131;DHT22;7666;50.920;4.628;2024-01-15T06:49:29;1.80;99.90
15131;DHT22;7666;50.920;4.628;2024-01-15T06:52:15;1.80;99.90
15131;DHT22;7666;50.920;4.628;2024-01-15T06:55:01;1.80;99.90
15131;DHT22;7666;50.920;4.628;2024-01-15T06:57:47;1.80;99.90
15131;DHT22;7666;50.920;4.628;2024-01-15T07:00:33;1.80;99.90
15131;DHT22;7666;50.920;4.628;2024-01-15T07:03:19;2.00;99.90
15131;DHT22;7666;50.920;4.628;2024-01-15T07:06:05;1.80;99.90
15131;DHT22;7666;50.920;4.628;2024-01-15T07:08:51;1.90;99.90
15131;DHT22;7666;50.920;4.628;2024-01-15T07:11:37;1.80;99.90
15131;DHT22;7666;50.920;4.628;2024-01-15T07:14:23;1.80;99.90
15131;DHT22;7666;50.920;4.628;2024-01-15T07:17:09;1.80;99.90
15131;DHT22;7666;50.920;4.628;2024-01-15T07:19:55;1.80;99.90
15131;DHT22;7666;50.920;4.628;2024-01-15T07:22:41;1.70;99.90
15131;DHT22;7666;50.920;4.628;2024-01-15T07:25:27;1.80;99.90
15131;DHT22;7666;50.920;4.628;2024-01-15T07:28:13;1.80;99.90
15131;DHT22;7666;50.920;4.628;2024-01-15T07:30:59;1.80;99.90
15131;DHT22;7666;50.920;4.628;2024-01-15T07:33:47;1.80;99.90
15131;DHT22;7666;50.920;4.628;2024-01-15T07:36:33;1.80;99.90
15131;DHT22;7666;50.920;4.628;2024-01-15T07:39:19;1.80;99.90
15131;DHT22;7666;50.920;4.628;2024-01-15T07:42:05;1.80;99.90
15131;DHT22;7666;50.920;4.628;2024-01-15T07:44:51;1.90;99.90
15131;DHT22;7666;50.920;4.628;2024-01-15T07:47:37;1.90;99.90
15131;DHT22;7666;50.920;4.628;2024-01-15T07:50:23;1.90;99.90
15131;DHT22;7666;50.920;4.628;2024-01-15T07:53:09;1.90;99.90
15131;DHT22;7666;50.920;4.628;2024-01-15T07:55:55;1.90;99.90
15131;DHT22;7666;50.920;4.628;2024-01-15T07:58:41;1.90;99.90
15131;DHT22;7666;50.920;4.628;2024-01-15T08:01:27;1.90;99.90
15131;DHT22;7666;50.920;4.628;2024-01-15T08:04:13;1.90;99.90
15131;DHT22;7666;50.920;4.628;2024-01-15T08:06:59;2.00;99.90
15131;DHT22;7666;50.920;4.628;2024-01-15T08:09:45;2.00;99.90
15131;DHT22;7666;50.920;4.628;2024-01-15T08:12:33;2.00;99.90
15131;DHT22;7666;50.920;4.628;2024-01-15T08:15:20;2.10;99.90
15131;DHT22;7666;50.920;4.628;2024-01-15T08:18:06;2.00;99.90
15131;DHT22;7666;50.920;4.628;2024-01-15T08:20:52;2.10;99.90
15131;DHT22;7666;50.920;4.628;2024-01-15T08:23:38;2.10;99.90
15131;DHT22;7666;50.920;4.628;2024-01-15T08:26:24;2.20;99.90
15131;DHT22;7666;50.920;4.628;2024-01-15T08:29:10;2.20;99.90
15131;DHT22;7666;50.920;4.628;2024-01-15T08:31:56;2.20;99.90
15131;DHT22;7666;50.920;4.628;2024-01-15T08:34:42;2.30;99.90
15131;DHT22;7666;50.920;4.628;2024-01-15T08:37:28;2.30;99.90
15131;DHT22;7666;50.920;4.628;2024-01-15T08:40:15;2.30;99.90
15131;DHT22;7666;50.920;4.628;2024-01-15T08:43:01;2.30;99.90
15131;DHT22;7666;50.920;4.628;2024-01-15T08:45:47;2.30;99.90
15131;DHT22;7666;50.920;4.628;2024-01-15T08:48:34;2.30;99.90
15131;DHT22;7666;50.920;4.628;2024-01-15T08:51:20;2.30;99.90
15131;DHT22;7666;50.920;4.628;2024-01-15T08:54:06;2.40;99.90
15131;DHT22;7666;50.920;4.628;2024-01-15T08:56:54;2.40;99.90
15131;DHT22;7666;50.920;4.628;2024-01-15T08:59:40;2.50;99.90
15131;DHT22;7666;50.920;4.628;2024-01-15T09:02:27;2.40;99.90
15131;DHT22;7666;50.920;4.628;2024-01-15T09:05:13;2.50;99.90
15131;DHT22;7666;50.920;4.628;2024-01-15T09:07:59;2.50;99.90
15131;DHT22;7666;50.920;4.628;2024-01-15T09:10:45;2.50;99.90
15131;DHT22;7666;50.920;4.628;2024-01-15T09:13:31;2.50;99.90
15131;DHT22;7666;50.920;4.628;2024-01-15T09:16:18;2.60;99.90
15131;DHT22;7666;50.920;4.628;2024-01-15T09:19:03;2.60;99.90
15131;DHT22;7666;50.920;4.628;2024-01-15T09:21:49;2.60;99.90
15131;DHT22;7666;50.920;4.628;2024-01-15T09:24:36;2.60;99.90
15131;DHT22;7666;50.920;4.628;2024-01-15T09:27:22;2.60;99.90
15131;DHT22;7666;50.920;4.628;2024-01-15T09:30:08;2.60;99.90
15131;DHT22;7666;50.920;4.628;2024-01-15T09:32:54;2.60;99.90
15131;DHT22;7666;50.920;4.628;2024-01-15T09:35:40;2.50;99.90
15131;DHT22;7666;50.920;4.628;2024-01-15T09:38:26;2.60;99.90
15131;DHT22;7666;50.920;4.628;2024-01-15T09:41:12;2.60;99.90
15131;DHT22;7666;50.920;4.628;2024-01-15T09:43:58;2.70;99.90
15131;DHT22;7666;50.920;4.628;2024-01-15T09:46:45;2.90;99.90
15131;DHT22;7666;50.920;4.628;2024-01-15T09:49:31;3.00;99.90
15131;DHT22;7666;50.920;4.628;2024-01-15T09:52:19;3.10;99.90
15131;DHT22;7666;50.920;4.628;2024-01-15T09:55:05;3.20;99.90
15131;DHT22;7666;50.920;4.628;2024-01-15T09:57:52;3.30;99.90
15131;DHT22;7666;50.920;4.628;2024-01-15T10:00:40;3.40;99.90
15131;DHT22;7666;50.920;4.628;2024-01-15T10:03:27;3.50;99.90
15131;DHT22;7666;50.920;4.628;2024-01-15T10:06:17;3.60;99.90
15131;DHT22;7666;50.920;4.628;2024-01-15T10:09:03;3.70;99.90
15131;DHT22;7666;50.920;4.628;2024-01-15T10:11:49;3.70;99.90
15131;DHT22;7666;50.920;4.628;2024-01-15T10:14:35;3.80;99.90
15131;DHT22;7666;50.920;4.628;2024-01-15T10:17:21;3.80;99.90
15131;DHT22;7666;50.920;4.628;2024-01-15T10:20:11;3.80;99.90
15131;DHT22;7666;50.920;4.628;2024-01-15T10:22:57;3.90;99.90
15131;DHT22;7666;50.920;4.628;2024-01-15T10:25:43;3.90;99.90
15131;DHT22;7666;50.920;4.628;2024-01-15T10:28:30;4.00;99.90
15131;DHT22;7666;50.920;4.628;2024-01-15T10:31:17;4.00;99.90
15131;DHT22;7666;50.920;4.628;2024-01-15T10:34:12;4.10;99.90
15131;DHT22;7666;50.920;4.628;2024-01-15T10:37:01;4.10;99.90
15131;DHT22;7666;50.920;4.628;2024-01-15T10:39:48;4.20;99.90
15131;DHT22;7666;50.920;4.628;2024-01-15T10:42:34;4.30;99.90
15131;DHT22;7666;50.920;4.628;2024-01-15T10:45:20;4.30;99.90
15131;DHT22;7666;50.920;4.628;2024-01-15T10:48:07;4.30;99.90
15131;DHT22;7666;50.920;4.628;2024-01-15T10:50:53;4.40;99.90
15131;DHT22;7666;50.920;4.628;2024-01-15T10:53:39;4.50;99.90
15131;DHT22;7666;50.920;4.628;2024-01-15T10:56:28;4.50;99.90
15131;DHT22;7666;50.920;4.628;2024-01-15T10:59:16;4.50;99.90
15131;DHT22;7666;50.920;4.628;2024-01-15T11:02:02;4.50;99.90
15131;DHT22;7666;50.920;4.628;2024-01-15T11:04:49;4.60;99.90
15131;DHT22;7666;50.920;4.628;2024-01-15T11:07:36;4.50;99.90
15131;DHT22;7666;50.920;4.628;2024-01-15T11:10:47;4.60;99.90
15131;DHT22;7666;50.920;4.628;2024-01-15T11:16:24;4.30;99.90
15131;DHT22;7666;50.920;4.628;2024-01-15T11:19:12;4.30;99.90
15131;DHT22;7666;50.920;4.628;2024-01-15T11:21:58;4.20;99.90
15131;DHT22;7666;50.920;4.628;2024-01-15T11:24:44;4.30;99.90
15131;DHT22;7666;50.920;4.628;2024-01-15T11:27:46;4.20;99.90
15131;DHT22;7666;50.920;4.628;2024-01-15T11:30:33;4.20;99.90
15131;DHT22;7666;50.920;4.628;2024-01-15T11:33:34;4.20;99.90
15131;DHT22;7666;50.920;4.628;2024-01-15T11:36:20;4.20;99.90
15131;DHT22;7666;50.920;4.628;2024-01-15T11:42:14;4.20;99.90
15131;DHT22;7666;50.920;4.628;2024-01-15T11:45:00;4.10;99.90
15131;DHT22;7666;50.920;4.628;2024-01-15T11:50:57;4.40;99.90
15131;DHT22;7666;50.920;4.628;2024-01-15T11:53:48;4.50;99.90
15131;DHT22;7666;50.920;4.628;2024-01-15T11:56:35;4.60;99.90
15131;DHT22;7666;50.920;4.628;2024-01-15T11:59:21;4.70;99.90
15131;DHT22;7666;50.920;4.628;2024-01-15T12:02:07;4.60;99.90
15131;DHT22;7666;50.920;4.628;2024-01-15T12:04:53;4.50;99.90
15131;DHT22;7666;50.920;4.628;2024-01-15T12:07:40;4.40;99.90
15131;DHT22;7666;50.920;4.628;2024-01-15T12:10:26;4.30;99.90
15131;DHT22;7666;50.920;4.628;2024-01-15T12:13:13;4.30;99.90
15131;DHT22;7666;50.920;4.628;2024-01-15T12:16:01;4.30;99.90
15131;DHT22;7666;50.920;4.628;2024-01-15T12:18:50;4.30;99.90
15131;DHT22;7666;50.920;4.628;2024-01-15T12:21:39;4.50;99.90
15131;DHT22;7666;50.920;4.628;2024-01-15T12:24:25;4.50;99.90
15131;DHT22;7666;50.920;4.628;2024-01-15T12:27:11;4.60;99.90
15131;DHT22;7666;50.920;4.628;2024-01-15T12:29:58;4.50;99.90
15131;DHT22;7666;50.920;4.628;2024-01-15T12:32:45;4.40;99.90
15131;DHT22;7666;50.920;4.628;2024-01-15T12:35:35;4.30;99.90
15131;DHT22;7666;50.920;4.628;2024-01-15T12:38:21;4.40;99.90
15131;DHT22;7666;50.920;4.628;2024-01-15T12:41:08;4.50;99.90
15131;DHT22;7666;50.920;4.628;2024-01-15T12:43:54;4.50;99.90
15131;DHT22;7666;50.920;4.628;2024-01-15T12:46:40;4.50;99.90
15131;DHT22;7666;50.920;4.628;2024-01-15T12:49:26;4.60;99.90
15131;DHT22;7666;50.920;4.628;2024-01-15T12:52:12;4.60;99.90
15131;DHT22;7666;50.920;4.628;2024-01-15T12:54:58;4.40;99.90
15131;DHT22;7666;50.920;4.628;2024-01-15T12:57:44;4.20;99.90
15131;DHT22;7666;50.920;4.628;2024-01-15T13:00:31;3.90;99.90
15131;DHT22;7666;50.920;4.628;2024-01-15T13:03:17;3.70;99.90
15131;DHT22;7666;50.920;4.628;2024-01-15T13:06:03;3.60;99.90
15131;DHT22;7666;50.920;4.628;2024-01-15T13:08:49;3.50;99.90
15131;DHT22;7666;50.920;4.628;2024-01-15T13:11:35;3.20;99.90
15131;DHT22;7666;50.920;4.628;2024-01-15T13:14:21;2.80;99.90
15131;DHT22;7666;50.920;4.628;2024-01-15T13:17:07;2.40;99.90
15131;DHT22;7666;50.920;4.628;2024-01-15T13:19:53;2.20;99.90
15131;DHT22;7666;50.920;4.628;2024-01-15T13:22:39;2.10;99.90
15131;DHT22;7666;50.920;4.628;2024-01-15T13:25:25;2.10;99.90
15131;DHT22;7666;50.920;4.628;2024-01-15T13:28:12;2.10;99.90
15131;DHT22;7666;50.920;4.628;2024-01-15T13:30:58;2.10;99.90
15131;DHT22;7666;50.920;4.628;2024-01-15T13:33:44;2.10;99.90
15131;DHT22;7666;50.920;4.628;2024-01-15T13:36:30;2.10;99.90
15131;DHT22;7666;50.920;4.628;2024-01-15T13:39:16;2.10;99.90
15131;DHT22;7666;50.920;4.628;2024-01-15T13:42:05;2.10;99.90
15131;DHT22;7666;50.920;4.628;2024-01-15T13:44:51;2.10;99.90
15131;DHT22;7666;50.920;4.628;2024-01-15T13:47:37;2.20;99.90
15131;DHT22;7666;50.920;4.628;2024-01-15T13:50:23;1.90;99.90
15131;DHT22;7666;50.920;4.628;2024-01-15T13:53:09;1.90;99.90
15131;DHT22;7666;50.920;4.628;2024-01-15T13:55:55;1.80;99.90
15131;DHT22;7666;50.920;4.628;2024-01-15T13:58:41;1.80;99.90
15131;DHT22;7666;50.920;4.628;2024-01-15T14:01:28;1.70;99.90
15131;DHT22;7666;50.920;4.628;2024-01-15T14:04:14;1.70;99.90
15131;DHT22;7666;50.920;4.628;2024-01-15T14:07:00;1.70;99.90
15131;DHT22;7666;50.920;4.628;2024-01-15T14:09:46;1.70;99.90
15131;DHT22;7666;50.920;4.628;2024-01-15T14:12:32;1.80;99.90
15131;DHT22;7666;50.920;4.628;2024-01-15T14:15:18;1.90;99.90
15131;DHT22;7666;50.920;4.628;2024-01-15T14:18:07;2.00;99.90
15131;DHT22;7666;50.920;4.628;2024-01-15T14:20:53;2.10;99.90
15131;DHT22;7666;50.920;4.628;2024-01-15T14:23:39;2.20;99.90
15131;DHT22;7666;50.920;4.628;2024-01-15T14:26:25;2.20;99.90
15131;DHT22;7666;50.920;4.628;2024-01-15T14:29:11;2.20;99.90
15131;DHT22;7666;50.920;4.628;2024-01-15T14:31:57;2.10;99.90
15131;DHT22;7666;50.920;4.628;2024-01-15T14:34:43;2.10;99.90
15131;DHT22;7666;50.920;4.628;2024-01-15T14:37:29;1.90;99.90
15131;DHT22;7666;50.920;4.628;2024-01-15T14:40:15;1.90;99.90
15131;DHT22;7666;50.920;4.628;2024-01-15T14:43:02;1.90;99.90
15131;DHT22;7666;50.920;4.628;2024-01-15T14:45:49;1.80;99.90
15131;DHT22;7666;50.920;4.628;2024-01-15T14:48:35;1.90;99.90
15131;DHT22;7666;50.920;4.628;2024-01-15T14:51:21;1.90;99.90
15131;DHT22;7666;50.920;4.628;2024-01-15T14:54:06;1.90;99.90
15131;DHT22;7666;50.920;4.628;2024-01-15T14:56:52;1.90;99.90
15131;DHT22;7666;50.920;4.628;2024-01-15T14:59:38;2.00;99.90
15131;DHT22;7666;50.920;4.628;2024-01-15T15:02:25;1.90;99.90
15131;DHT22;7666;50.920;4.628;2024-01-15T15:05:13;2.00;99.90
15131;DHT22;7666;50.920;4.628;2024-01-15T15:08:02;2.00;99.90
15131;DHT22;7666;50.920;4.628;2024-01-15T15:10:50;2.10;99.90
15131;DHT22;7666;50.920;4.628;2024-01-15T15:13:36;2.00;99.90
15131;DHT22;7666;50.920;4.628;2024-01-15T15:16:22;2.10;99.90
15131;DHT22;7666;50.920;4.628;2024-01-15T15:19:08;2.10;99.90
15131;DHT22;7666;50.920;4.628;2024-01-15T15:21:54;2.10;99.90
15131;DHT22;7666;50.920;4.628;2024-01-15T15:24:40;2.00;99.90
15131;DHT22;7666;50.920;4.628;2024-01-15T15:27:26;2.00;99.90
15131;DHT22;7666;50.920;4.628;2024-01-15T15:30:13;2.00;99.90
15131;DHT22;7666;50.920;4.628;2024-01-15T15:32:59;2.00;99.90
15131;DHT22;7666;50.920;4.628;2024-01-15T15:35:45;2.00;99.90
15131;DHT22;7666;50.920;4.628;2024-01-15T15:38:31;2.00;99.90
15131;DHT22;7666;50.920;4.628;2024-01-15T15:41:17;2.10;99.90
15131;DHT22;7666;50.920;4.628;2024-01-15T15:44:03;2.10;99.90
15131;DHT22;7666;50.920;4.628;2024-01-15T15:46:49;2.10;99.90
15131;DHT22;7666;50.920;4.628;2024-01-15T15:49:35;2.10;99.90
15131;DHT22;7666;50.920;4.628;2024-01-15T15:52:21;2.10;99.90
15131;DHT22;7666;50.920;4.628;2024-01-15T15:55:08;2.10;99.90
15131;DHT22;7666;50.920;4.628;2024-01-15T15:57:53;2.10;99.90
15131;DHT22;7666;50.920;4.628;2024-01-15T16:00:39;2.10;99.90
15131;DHT22;7666;50.920;4.628;2024-01-15T16:03:25;2.10;99.90
15131;DHT22;7666;50.920;4.628;2024-01-15T16:06:11;2.10;99.90
15131;DHT22;7666;50.920;4.628;2024-01-15T16:08:57;2.00;99.90
15131;DHT22;7666;50.920;4.628;2024-01-15T16:11:44;2.00;99.90
15131;DHT22;7666;50.920;4.628;2024-01-15T16:14:31;2.00;99.90
15131;DHT22;7666;50.920;4.628;2024-01-15T16:17:17;2.00;99.90
15131;DHT22;7666;50.920;4.628;2024-01-15T16:20:03;2.00;99.90
15131;DHT22;7666;50.920;4.628;2024-01-15T16:22:49;2.00;99.90
15131;DHT22;7666;50.920;4.628;2024-01-15T16:25:36;2.00;99.90
15131;DHT22;7666;50.920;4.628;2024-01-15T16:28:23;2.00;99.90
15131;DHT22;7666;50.920;4.628;2024-01-15T16:31:09;1.90;99.90
15131;DHT22;7666;50.920;4.628;2024-01-15T16:33:55;1.90;99.90
15131;DHT22;7666;50.920;4.628;2024-01-15T16:36:41;1.90;99.90
15131;DHT22;7666;50.920;4.628;2024-01-15T16:39:27;1.80;99.90
15131;DHT22;7666;50.920;4.628;2024-01-15T16:42:13;1.80;99.90
15131;DHT22;7666;50.920;4.628;2024-01-15T16:44:59;1.80;99.90
15131;DHT22;7666;50.920;4.628;2024-01-15T16:47:45;1.80;99.90
15131;DHT22;7666;50.920;4.628;2024-01-15T16:50:31;1.80;99.90
15131;DHT22;7666;50.920;4.628;2024-01-15T16:53:17;1.80;99.90
15131;DHT22;7666;50.920;4.628;2024-01-15T16:56:03;1.80;99.90
15131;DHT22;7666;50.920;4.628;2024-01-15T16:58:50;1.80;99.90
15131;DHT22;7666;50.920;4.628;2024-01-15T17:01:36;1.80;99.90
15131;DHT22;7666;50.920;4.628;2024-01-15T17:04:22;1.80;99.90
15131;DHT22;7666;50.920;4.628;2024-01-15T17:07:09;1.80;99.90
15131;DHT22;7666;50.920;4.628;2024-01-15T17:09:55;1.80;99.90
15131;DHT22;7666;50.920;4.628;2024-01-15T17:12:41;1.80;99.90
15131;DHT22;7666;50.920;4.628;2024-01-15T17:15:28;1.80;99.90
15131;DHT22;7666;50.920;4.628;2024-01-15T17:18:14;1.80;99.90
15131;DHT22;7666;50.920;4.628;2024-01-15T17:21:00;1.80;99.90
15131;DHT22;7666;50.920;4.628;2024-01-15T17:23:46;1.80;99.90
15131;DHT22;7666;50.920;4.628;2024-01-15T17:26:32;1.80;99.90
15131;DHT22;7666;50.920;4.628;2024-01-15T17:29:18;1.80;99.90
15131;DHT22;7666;50.920;4.628;2024-01-15T17:32:06;1.80;99.90
15131;DHT22;7666;50.920;4.628;2024-01-15T17:34:52;1.80;99.90
15131;DHT22;7666;50.920;4.628;2024-01-15T17:37:39;1.80;99.90
15131;DHT22;7666;50.920;4.628;2024-01-15T17:40:25;1.70;99.90
15131;DHT22;7666;50.920;4.628;2024-01-15T17:43:11;1.60;99.90
15131;DHT22;7666;50.920;4.628;2024-01-15T17:45:57;1.60;99.90
15131;DHT22;7666;50.920;4.628;2024-01-15T17:48:48;1.70;99.90
15131;DHT22;7666;50.920;4.628;2024-01-15T17:51:34;1.50;99.90
15131;DHT22;7666;50.920;4.628;2024-01-15T17:54:20;1.60;99.90
15131;DHT22;7666;50.920;4.628;2024-01-15T17:57:06;1.60;99.90
15131;DHT22;7666;50.920;4.628;2024-01-15T17:59:52;1.60;99.90
15131;DHT22;7666;50.920;4.628;2024-01-15T18:02:38;1.60;99.90
15131;DHT22;7666;50.920;4.628;2024-01-15T18:05:24;1.60;99.90
15131;DHT22;7666;50.920;4.628;2024-01-15T18:08:10;1.50;99.90
15131;DHT22;7666;50.920;4.628;2024-01-15T18:10:58;1.70;99.90
15131;DHT22;7666;50.920;4.628;2024-01-15T18:13:43;1.50;99.90
15131;DHT22;7666;50.920;4.628;2024-01-15T18:16:29;1.40;99.90